sensor_id;sensor_type;location;lat;lon;timestamp;P1;durP1;ratioP1;P2;durP2;ratioP2
29934;SDS011;19905;53.370;-6.314;2023-05-10T00:00:40;10.70;;;2.13;;
29934;SDS011;19905;53.370;-6.314;2023-05-10T00:03:09;14.63;;;2.33;;
29934;SDS011;19905;53.370;-6.314;2023-05-10T00:05:38;12.00;;;2.10;;
29934;SDS011;19905;53.370;-6.314;2023-05-10T00:08:07;12.65;;;2.35;;
29934;SDS011;19905;53.370;-6.314;2023-05-10T00:10:37;16.02;;;2.42;;
29934;SDS011;19905;53.370;-6.314;2023-05-10T00:13:08;13.52;;;2.28;;
29934;SDS011;19905;53.370;-6.314;2023-05-10T00:15:36;10.07;;;2.05;;
29934;SDS011;19905;53.370;-6.314;2023-05-10T00:18:05;15.18;;;2.53;;
29934;SDS011;19905;53.370;-6.314;2023-05-10T00:20:33;13.10;;;2.13;;
29934;SDS011;19905;53.370;-6.314;2023-05-10T00:23:02;16.38;;;2.50;;
29934;SDS011;19905;53.370;-6.314;2023-05-10T00:25:30;9.43;;;2.10;;
29934;SDS011;19905;53.370;-6.314;2023-05-10T00:28:00;16.02;;;2.20;;
29934;SDS011;19905;53.370;-6.314;2023-05-10T00:30:29;10.38;;;2.13;;
29934;SDS011;19905;53.370;-6.314;2023-05-10T00:32:58;11.15;;;2.45;;
29934;SDS011;19905;53.370;-6.314;2023-05-10T00:35:27;15.80;;;2.55;;
29934;SDS011;19905;53.370;-6.314;2023-05-10T00:37:55;10.10;;;2.22;;
29934;SDS011;19905;53.370;-6.314;2023-05-10T00:40:24;15.00;;;2.20;;
29934;SDS011;19905;53.370;-6.314;2023-05-10T00:42:53;12.07;;;2.38;;
29934;SDS011;19905;53.370;-6.314;2023-05-10T00:45:22;10.10;;;1.98;;
29934;SDS011;19905;53.370;-6.314;2023-05-10T00:47:51;11.07;;;1.90;;
29934;SDS011;19905;53.370;-6.314;2023-05-10T00:50:23;13.65;;;2.20;;
29934;SDS011;19905;53.370;-6.314;2023-05-10T00:52:52;11.38;;;1.90;;
29934;SDS011;19905;53.370;-6.314;2023-05-10T00:55:21;13.38;;;2.33;;
29934;SDS011;19905;53.370;-6.314;2023-05-10T00:57:49;6.57;;;1.63;;
29934;SDS011;19905;53.370;-6.314;2023-05-10T01:00:18;11.77;;;2.20;;
29934;SDS011;19905;53.370;-6.314;2023-05-10T01:02:48;9.63;;;1.88;;
29934;SDS011;19905;53.370;-6.314;2023-05-10T01:05:17;10.50;;;2.33;;
29934;SDS011;19905;53.370;-6.314;2023-05-10T01:07:47;10.90;;;1.90;;
29934;SDS011;19905;53.370;-6.314;2023-05-10T01:10:16;12.23;;;2.03;;
29934;SDS011;19905;53.370;-6.314;2023-05-10T01:12:45;10.23;;;2.10;;
29934;SDS011;19905;53.370;-6.314;2023-05-10T01:15:15;10.77;;;2.05;;
29934;SDS011;19905;53.370;-6.314;2023-05-10T01:17:45;11.05;;;2.25;;
29934;SDS011;19905;53.370;-6.314;2023-05-10T01:20:16;11.73;;;2.35;;
29934;SDS011;19905;53.370;-6.314;2023-05-10T01:25:55;10.77;;;2.38;;
29934;SDS011;19905;53.370;-6.314;2023-05-10T01:28:53;10.32;;;2.10;;
29934;SDS011;19905;53.370;-6.314;2023-05-10T01:31:39;10.13;;;1.70;;
29934;SDS011;19905;53.370;-6.314;2023-05-10T01:34:31;10.07;;;1.63;;
29934;SDS011;19905;53.370;-6.314;2023-05-10T01:37:06;12.60;;;1.58;;
29934;SDS011;19905;53.370;-6.314;2023-05-10T01:39:40;10.90;;;1.65;;
29934;SDS011;19905;53.370;-6.314;2023-05-10T01:42:15;8.80;;;1.50;;
29934;SDS011;19905;53.370;-6.314;2023-05-10T01:44:49;9.52;;;1.50;;
29934;SDS011;19905;53.370;-6.314;2023-05-10T01:47:28;10.88;;;1.80;;
29934;SDS011;19905;53.370;-6.314;2023-05-10T01:50:01;9.15;;;1.63;;
29934;SDS011;19905;53.370;-6.314;2023-05-10T01:52:33;9.95;;;1.60;;
29934;SDS011;19905;53.370;-6.314;2023-05-10T01:55:08;8.88;;;1.77;;
29934;SDS011;19905;53.370;-6.314;2023-05-10T01:57:40;9.55;;;1.98;;
29934;SDS011;19905;53.370;-6.314;2023-05-10T02:00:11;11.77;;;1.88;;
29934;SDS011;19905;53.370;-6.314;2023-05-10T02:02:44;7.63;;;1.52;;
29934;SDS011;19905;53.370;-6.314;2023-05-10T02:05:16;5.57;;;1.60;;
29934;SDS011;19905;53.370;-6.314;2023-05-10T02:07:46;10.18;;;1.70;;
29934;SDS011;19905;53.370;-6.314;2023-05-10T02:10:15;8.55;;;1.75;;
29934;SDS011;19905;53.370;-6.314;2023-05-10T02:12:45;13.68;;;1.80;;
29934;SDS011;19905;53.370;-6.314;2023-05-10T02:15:17;9.52;;;1.90;;
29934;SDS011;19905;53.370;-6.314;2023-05-10T02:17:48;11.20;;;1.90;;
29934;SDS011;19905;53.370;-6.314;2023-05-10T02:20:19;13.77;;;1.80;;
29934;SDS011;19905;53.370;-6.314;2023-05-10T02:22:50;7.15;;;1.52;;
29934;SDS011;19905;53.370;-6.314;2023-05-10T02:25:22;11.77;;;2.10;;
29934;SDS011;19905;53.370;-6.314;2023-05-10T02:27:54;9.77;;;1.42;;
29934;SDS011;19905;53.370;-6.314;2023-05-10T02:30:25;11.20;;;2.10;;
29934;SDS011;19905;53.370;-6.314;2023-05-10T02:32:55;10.40;;;1.52;;
29934;SDS011;19905;53.370;-6.314;2023-05-10T02:35:27;11.25;;;1.77;;
29934;SDS011;19905;53.370;-6.314;2023-05-10T02:37:57;11.32;;;1.60;;
29934;SDS011;19905;53.370;-6.314;2023-05-10T02:40:27;8.88;;;2.00;;
29934;SDS011;19905;53.370;-6.314;2023-05-10T02:42:57;8.65;;;1.80;;
29934;SDS011;19905;53.370;-6.314;2023-05-10T02:45:30;10.48;;;1.80;;
29934;SDS011;19905;53.370;-6.314;2023-05-10T02:48:00;7.70;;;1.83;;
29934;SDS011;19905;53.370;-6.314;2023-05-10T02:50:31;9.57;;;1.50;;
29934;SDS011;19905;53.370;-6.314;2023-05-10T02:53:03;11.10;;;1.80;;
29934;SDS011;19905;53.370;-6.314;2023-05-10T02:55:39;10.38;;;1.70;;
29934;SDS011;19905;53.370;-6.314;2023-05-10T02:58:09;7.72;;;1.50;;
29934;SDS011;19905;53.370;-6.314;2023-05-10T03:00:38;14.40;;;1.70;;
29934;SDS011;19905;53.370;-6.314;2023-05-10T03:03:06;10.85;;;1.65;;
29934;SDS011;19905;53.370;-6.314;2023-05-10T03:05:36;9.32;;;1.77;;
29934;SDS011;19905;53.370;-6.314;2023-05-10T03:08:05;10.57;;;1.75;;
29934;SDS011;19905;53.370;-6.314;2023-05-10T03:10:38;13.40;;;1.98;;
29934;SDS011;19905;53.370;-6.314;2023-05-10T03:13:16;10.43;;;1.95;;
29934;SDS011;19905;53.370;-6.314;2023-05-10T03:15:55;16.25;;;1.80;;
29934;SDS011;19905;53.370;-6.314;2023-05-10T03:18:28;14.85;;;2.00;;
29934;SDS011;19905;53.370;-6.314;2023-05-10T03:21:04;10.13;;;1.73;;
29934;SDS011;19905;53.370;-6.314;2023-05-10T03:23:41;13.57;;;2.10;;
29934;SDS011;19905;53.370;-6.314;2023-05-10T03:26:17;11.07;;;1.65;;
29934;SDS011;19905;53.370;-6.314;2023-05-10T03:28:49;9.75;;;1.85;;
29934;SDS011;19905;53.370;-6.314;2023-05-10T03:31:19;10.82;;;1.70;;
29934;SDS011;19905;53.370;-6.314;2023-05-10T03:33:48;12.93;;;1.90;;
29934;SDS011;19905;53.370;-6.314;2023-05-10T03:36:20;11.07;;;1.50;;
29934;SDS011;19905;53.370;-6.314;2023-05-10T03:38:50;9.25;;;1.48;;
29934;SDS011;19905;53.370;-6.314;2023-05-10T03:41:18;11.10;;;1.88;;
29934;SDS011;19905;53.370;-6.314;2023-05-10T03:43:47;9.35;;;1.60;;
29934;SDS011;19905;53.370;-6.314;2023-05-10T03:46:15;10.32;;;1.42;;
29934;SDS011;19905;53.370;-6.314;2023-05-10T03:48:44;11.43;;;2.30;;
29934;SDS011;19905;53.370;-6.314;2023-05-10T03:51:13;14.50;;;1.73;;
29934;SDS011;19905;53.370;-6.314;2023-05-10T03:53:43;14.55;;;1.50;;
29934;SDS011;19905;53.370;-6.314;2023-05-10T03:56:12;9.52;;;1.95;;
29934;SDS011;19905;53.370;-6.314;2023-05-10T03:58:40;14.45;;;1.85;;
29934;SDS011;19905;53.370;-6.314;2023-05-10T04:01:08;11.05;;;1.77;;
29934;SDS011;19905;53.370;-6.314;2023-05-10T04:03:38;12.95;;;2.05;;
29934;SDS011;19905;53.370;-6.314;2023-05-10T04:06:07;14.10;;;1.80;;
29934;SDS011;19905;53.370;-6.314;2023-05-10T04:08:38;11.48;;;1.75;;
29934;SDS011;19905;53.370;-6.314;2023-05-10T04:11:08;17.92;;;2.17;;
29934;SDS011;19905;53.370;-6.314;2023-05-10T04:13:39;11.68;;;1.73;;
29934;SDS011;19905;53.370;-6.314;2023-05-10T04:16:07;9.73;;;1.85;;
29934;SDS011;19905;53.370;-6.314;2023-05-10T04:18:36;12.95;;;1.88;;
29934;SDS011;19905;53.370;-6.314;2023-05-10T04:21:10;14.02;;;1.85;;
29934;SDS011;19905;53.370;-6.314;2023-05-10T04:23:40;15.02;;;1.92;;
29934;SDS011;19905;53.370;-6.314;2023-05-10T04:26:10;17.00;;;1.80;;
29934;SDS011;19905;53.370;-6.314;2023-05-10T04:28:39;15.75;;;1.98;;
29934;SDS011;19905;53.370;-6.314;2023-05-10T04:31:08;17.45;;;2.17;;
29934;SDS011;19905;53.370;-6.314;2023-05-10T04:33:38;11.60;;;2.08;;
29934;SDS011;19905;53.370;-6.314;2023-05-10T04:36:07;16.77;;;2.17;;
29934;SDS011;19905;53.370;-6.314;2023-05-10T04:38:36;15.05;;;1.95;;
29934;SDS011;19905;53.370;-6.314;2023-05-10T04:41:06;15.55;;;2.00;;
29934;SDS011;19905;53.370;-6.314;2023-05-10T04:43:37;13.00;;;2.05;;
29934;SDS011;19905;53.370;-6.314;2023-05-10T04:46:06;13.73;;;1.98;;
29934;SDS011;19905;53.370;-6.314;2023-05-10T04:48:34;12.02;;;1.95;;
29934;SDS011;19905;53.370;-6.314;2023-05-10T04:51:03;9.68;;;1.50;;
29934;SDS011;19905;53.370;-6.314;2023-05-10T04:53:33;10.10;;;1.60;;
29934;SDS011;19905;53.370;-6.314;2023-05-10T04:56:02;9.85;;;1.50;;
29934;SDS011;19905;53.370;-6.314;2023-05-10T04:58:31;12.65;;;1.90;;
29934;SDS011;19905;53.370;-6.314;2023-05-10T05:01:06;9.90;;;1.60;;
29934;SDS011;19905;53.370;-6.314;2023-05-10T05:03:35;8.00;;;1.42;;
29934;SDS011;19905;53.370;-6.314;2023-05-10T05:06:04;13.38;;;1.50;;
29934;SDS011;19905;53.370;-6.314;2023-05-10T05:08:33;13.32;;;1.70;;
29934;SDS011;19905;53.370;-6.314;2023-05-10T05:11:02;11.27;;;1.67;;
29934;SDS011;19905;53.370;-6.314;2023-05-10T05:13:31;14.43;;;1.60;;
29934;SDS011;19905;53.370;-6.314;2023-05-10T05:16:00;15.05;;;2.00;;
29934;SDS011;19905;53.370;-6.314;2023-05-10T05:18:30;12.82;;;1.70;;
29934;SDS011;19905;53.370;-6.314;2023-05-10T05:20:59;17.83;;;1.80;;
29934;SDS011;19905;53.370;-6.314;2023-05-10T05:23:28;11.48;;;1.60;;
29934;SDS011;19905;53.370;-6.314;2023-05-10T05:25:56;13.05;;;1.60;;
29934;SDS011;19905;53.370;-6.314;2023-05-10T05:28:25;8.32;;;1.48;;
29934;SDS011;19905;53.370;-6.314;2023-05-10T05:30:55;10.10;;;1.75;;
29934;SDS011;19905;53.370;-6.314;2023-05-10T05:33:23;12.32;;;1.77;;
29934;SDS011;19905;53.370;-6.314;2023-05-10T05:35:53;11.25;;;1.58;;
29934;SDS011;19905;53.370;-6.314;2023-05-10T05:38:22;8.55;;;1.45;;
29934;SDS011;19905;53.370;-6.314;2023-05-10T05:40:50;7.68;;;1.25;;
29934;SDS011;19905;53.370;-6.314;2023-05-10T05:43:19;7.63;;;1.40;;
29934;SDS011;19905;53.370;-6.314;2023-05-10T05:45:48;12.43;;;1.58;;
29934;SDS011;19905;53.370;-6.314;2023-05-10T05:48:16;4.50;;;1.23;;
29934;SDS011;19905;53.370;-6.314;2023-05-10T05:50:45;6.70;;;1.20;;
29934;SDS011;19905;53.370;-6.314;2023-05-10T05:53:15;11.93;;;1.67;;
29934;SDS011;19905;53.370;-6.314;2023-05-10T05:55:50;6.88;;;1.13;;
29934;SDS011;19905;53.370;-6.314;2023-05-10T05:58:21;7.45;;;1.30;;
29934;SDS011;19905;53.370;-6.314;2023-05-10T06:00:50;6.75;;;1.20;;
29934;SDS011;19905;53.370;-6.314;2023-05-10T06:03:19;7.25;;;1.10;;
29934;SDS011;19905;53.370;-6.314;2023-05-10T06:05:49;5.07;;;0.90;;
29934;SDS011;19905;53.370;-6.314;2023-05-10T06:08:19;10.10;;;1.35;;
29934;SDS011;19905;53.370;-6.314;2023-05-10T06:10:48;6.65;;;1.20;;
29934;SDS011;19905;53.370;-6.314;2023-05-10T06:13:17;7.32;;;1.05;;
29934;SDS011;19905;53.370;-6.314;2023-05-10T06:15:45;7.53;;;1.05;;
29934;SDS011;19905;53.370;-6.314;2023-05-10T06:18:14;7.38;;;1.20;;
29934;SDS011;19905;53.370;-6.314;2023-05-10T06:20:43;7.35;;;1.23;;
29934;SDS011;19905;53.370;-6.314;2023-05-10T06:23:11;7.30;;;1.50;;
29934;SDS011;19905;53.370;-6.314;2023-05-10T06:25:41;6.75;;;1.30;;
29934;SDS011;19905;53.370;-6.314;2023-05-10T06:28:10;11.57;;;1.40;;
29934;SDS011;19905;53.370;-6.314;2023-05-10T06:30:38;10.63;;;1.10;;
29934;SDS011;19905;53.370;-6.314;2023-05-10T06:33:07;8.40;;;1.20;;
29934;SDS011;19905;53.370;-6.314;2023-05-10T06:35:36;6.22;;;1.10;;
29934;SDS011;19905;53.370;-6.314;2023-05-10T06:38:05;7.35;;;0.98;;
29934;SDS011;19905;53.370;-6.314;2023-05-10T06:40:34;7.43;;;1.13;;
29934;SDS011;19905;53.370;-6.314;2023-05-10T06:43:04;6.65;;;1.05;;
29934;SDS011;19905;53.370;-6.314;2023-05-10T06:45:32;9.38;;;1.00;;
29934;SDS011;19905;53.370;-6.314;2023-05-10T06:48:01;4.80;;;0.88;;
29934;SDS011;19905;53.370;-6.314;2023-05-10T06:50:30;7.28;;;1.05;;
29934;SDS011;19905;53.370;-6.314;2023-05-10T06:52:59;6.22;;;1.20;;
29934;SDS011;19905;53.370;-6.314;2023-05-10T06:55:28;5.65;;;1.10;;
29934;SDS011;19905;53.370;-6.314;2023-05-10T06:57:57;6.13;;;0.93;;
29934;SDS011;19905;53.370;-6.314;2023-05-10T07:00:27;5.97;;;1.20;;
29934;SDS011;19905;53.370;-6.314;2023-05-10T07:02:58;6.43;;;1.00;;
29934;SDS011;19905;53.370;-6.314;2023-05-10T07:05:26;4.15;;;1.02;;
29934;SDS011;19905;53.370;-6.314;2023-05-10T07:07:58;5.28;;;1.10;;
29934;SDS011;19905;53.370;-6.314;2023-05-10T07:10:28;5.88;;;0.77;;
29934;SDS011;19905;53.370;-6.314;2023-05-10T07:12:56;8.57;;;1.10;;
29934;SDS011;19905;53.370;-6.314;2023-05-10T07:15:27;6.45;;;1.15;;
29934;SDS011;19905;53.370;-6.314;2023-05-10T07:17:55;9.38;;;1.20;;
29934;SDS011;19905;53.370;-6.314;2023-05-10T07:20:24;8.25;;;0.90;;
29934;SDS011;19905;53.370;-6.314;2023-05-10T07:22:53;2.63;;;0.95;;
29934;SDS011;19905;53.370;-6.314;2023-05-10T07:25:22;4.45;;;0.90;;
29934;SDS011;19905;53.370;-6.314;2023-05-10T07:27:51;5.93;;;0.70;;
29934;SDS011;19905;53.370;-6.314;2023-05-10T07:30:20;4.28;;;0.80;;
29934;SDS011;19905;53.370;-6.314;2023-05-10T07:32:51;2.83;;;0.52;;
29934;SDS011;19905;53.370;-6.314;2023-05-10T07:35:19;2.53;;;0.70;;
29934;SDS011;19905;53.370;-6.314;2023-05-10T07:37:48;2.53;;;0.70;;
29934;SDS011;19905;53.370;-6.314;2023-05-10T07:40:16;2.85;;;0.50;;
29934;SDS011;19905;53.370;-6.314;2023-05-10T07:42:47;3.20;;;0.52;;
29934;SDS011;19905;53.370;-6.314;2023-05-10T07:45:15;2.63;;;0.65;;
29934;SDS011;19905;53.370;-6.314;2023-05-10T07:47:44;3.72;;;0.70;;
29934;SDS011;19905;53.370;-6.314;2023-05-10T07:50:15;2.67;;;0.80;;
29934;SDS011;19905;53.370;-6.314;2023-05-10T07:52:43;2.50;;;0.50;;
29934;SDS011;19905;53.370;-6.314;2023-05-10T07:55:12;2.28;;;0.60;;
29934;SDS011;19905;53.370;-6.314;2023-05-10T07:57:41;2.40;;;0.43;;
29934;SDS011;19905;53.370;-6.314;2023-05-10T08:00:12;3.85;;;0.73;;
29934;SDS011;19905;53.370;-6.314;2023-05-10T08:02:45;4.28;;;0.80;;
29934;SDS011;19905;53.370;-6.314;2023-05-10T08:05:15;3.95;;;1.00;;
29934;SDS011;19905;53.370;-6.314;2023-05-10T08:07:44;3.20;;;0.60;;
29934;SDS011;19905;53.370;-6.314;2023-05-10T08:10:13;4.18;;;0.80;;
29934;SDS011;19905;53.370;-6.314;2023-05-10T08:12:43;7.50;;;0.88;;
29934;SDS011;19905;53.370;-6.314;2023-05-10T08:15:12;4.78;;;0.80;;
29934;SDS011;19905;53.370;-6.314;2023-05-10T08:17:41;3.42;;;0.70;;
29934;SDS011;19905;53.370;-6.314;2023-05-10T08:20:10;3.28;;;0.55;;
29934;SDS011;19905;53.370;-6.314;2023-05-10T08:22:44;2.67;;;0.65;;
29934;SDS011;19905;53.370;-6.314;2023-05-10T08:25:16;5.93;;;0.70;;
29934;SDS011;19905;53.370;-6.314;2023-05-10T08:27:45;7.85;;;0.70;;
29934;SDS011;19905;53.370;-6.314;2023-05-10T08:30:13;2.78;;;0.50;;
29934;SDS011;19905;53.370;-6.314;2023-05-10T08:32:42;3.90;;;0.52;;
29934;SDS011;19905;53.370;-6.314;2023-05-10T08:35:10;2.25;;;0.60;;
29934;SDS011;19905;53.370;-6.314;2023-05-10T08:37:39;2.55;;;0.80;;
29934;SDS011;19905;53.370;-6.314;2023-05-10T08:40:11;5.28;;;0.90;;
29934;SDS011;19905;53.370;-6.314;2023-05-10T08:42:43;5.38;;;0.80;;
29934;SDS011;19905;53.370;-6.314;2023-05-10T08:45:19;3.13;;;0.55;;
29934;SDS011;19905;53.370;-6.314;2023-05-10T08:47:52;6.35;;;1.00;;
29934;SDS011;19905;53.370;-6.314;2023-05-10T08:50:21;4.43;;;0.52;;
29934;SDS011;19905;53.370;-6.314;2023-05-10T08:52:50;6.07;;;1.00;;
29934;SDS011;19905;53.370;-6.314;2023-05-10T08:55:24;5.10;;;0.70;;
29934;SDS011;19905;53.370;-6.314;2023-05-10T08:57:53;3.20;;;0.70;;
29934;SDS011;19905;53.370;-6.314;2023-05-10T09:00:22;2.38;;;0.57;;
29934;SDS011;19905;53.370;-6.314;2023-05-10T09:02:52;3.25;;;0.68;;
29934;SDS011;19905;53.370;-6.314;2023-05-10T09:05:22;3.60;;;0.57;;
29934;SDS011;19905;53.370;-6.314;2023-05-10T09:07:51;4.50;;;0.85;;
29934;SDS011;19905;53.370;-6.314;2023-05-10T09:10:20;2.75;;;0.70;;
29934;SDS011;19905;53.370;-6.314;2023-05-10T09:12:52;2.75;;;0.65;;
29934;SDS011;19905;53.370;-6.314;2023-05-10T09:15:24;3.28;;;0.70;;
29934;SDS011;19905;53.370;-6.314;2023-05-10T09:17:54;2.75;;;0.57;;
29934;SDS011;19905;53.370;-6.314;2023-05-10T09:20:23;0.93;;;0.50;;
29934;SDS011;19905;53.370;-6.314;2023-05-10T09:22:52;4.90;;;0.68;;
29934;SDS011;19905;53.370;-6.314;2023-05-10T09:25:20;5.57;;;0.80;;
29934;SDS011;19905;53.370;-6.314;2023-05-10T09:27:49;3.75;;;0.60;;
29934;SDS011;19905;53.370;-6.314;2023-05-10T09:30:24;1.73;;;0.50;;
29934;SDS011;19905;53.370;-6.314;2023-05-10T09:32:55;2.67;;;0.60;;
29934;SDS011;19905;53.370;-6.314;2023-05-10T09:35:25;2.78;;;0.70;;
29934;SDS011;19905;53.370;-6.314;2023-05-10T09:37:56;4.20;;;0.95;;
29934;SDS011;19905;53.370;-6.314;2023-05-10T09:40:28;3.15;;;0.50;;
29934;SDS011;19905;53.370;-6.314;2023-05-10T09:42:58;1.95;;;0.50;;
29934;SDS011;19905;53.370;-6.314;2023-05-10T09:45:30;1.52;;;0.57;;
29934;SDS011;19905;53.370;-6.314;2023-05-10T09:48:04;2.72;;;0.60;;
29934;SDS011;19905;53.370;-6.314;2023-05-10T09:50:34;1.60;;;0.50;;
29934;SDS011;19905;53.370;-6.314;2023-05-10T09:53:03;3.33;;;0.75;;
29934;SDS011;19905;53.370;-6.314;2023-05-10T09:55:38;2.67;;;0.70;;
29934;SDS011;19905;53.370;-6.314;2023-05-10T09:58:08;4.53;;;0.88;;
29934;SDS011;19905;53.370;-6.314;2023-05-10T10:00:39;2.92;;;0.82;;
29934;SDS011;19905;53.370;-6.314;2023-05-10T10:03:12;2.83;;;0.80;;
29934;SDS011;19905;53.370;-6.314;2023-05-10T10:05:43;1.73;;;0.80;;
29934;SDS011;19905;53.370;-6.314;2023-05-10T10:08:12;2.42;;;0.50;;
29934;SDS011;19905;53.370;-6.314;2023-05-10T10:10:41;2.90;;;0.40;;
29934;SDS011;19905;53.370;-6.314;2023-05-10T10:13:12;1.73;;;0.52;;
29934;SDS011;19905;53.370;-6.314;2023-05-10T10:15:42;1.77;;;0.38;;
29934;SDS011;19905;53.370;-6.314;2023-05-10T10:18:13;1.42;;;0.30;;
29934;SDS011;19905;53.370;-6.314;2023-05-10T10:20:42;1.08;;;0.50;;
29934;SDS011;19905;53.370;-6.314;2023-05-10T10:23:11;1.27;;;0.45;;
29934;SDS011;19905;53.370;-6.314;2023-05-10T10:25:43;2.55;;;0.57;;
29934;SDS011;19905;53.370;-6.314;2023-05-10T10:28:16;2.15;;;0.88;;
29934;SDS011;19905;53.370;-6.314;2023-05-10T10:30:55;3.10;;;0.60;;
29934;SDS011;19905;53.370;-6.314;2023-05-10T10:33:36;2.75;;;0.60;;
29934;SDS011;19905;53.370;-6.314;2023-05-10T10:36:18;3.50;;;0.70;;
29934;SDS011;19905;53.370;-6.314;2023-05-10T10:38:54;2.20;;;0.50;;
29934;SDS011;19905;53.370;-6.314;2023-05-10T10:41:31;6.18;;;1.20;;
29934;SDS011;19905;53.370;-6.314;2023-05-10T10:47:01;2.67;;;0.80;;
29934;SDS011;19905;53.370;-6.314;2023-05-10T10:49:38;1.88;;;0.60;;
29934;SDS011;19905;53.370;-6.314;2023-05-10T10:52:21;4.57;;;1.15;;
29934;SDS011;19905;53.370;-6.314;2023-05-10T10:54:58;3.05;;;1.30;;
29934;SDS011;19905;53.370;-6.314;2023-05-10T10:57:30;2.05;;;0.85;;
29934;SDS011;19905;53.370;-6.314;2023-05-10T11:00:20;3.03;;;0.60;;
29934;SDS011;19905;53.370;-6.314;2023-05-10T11:02:55;0.75;;;0.40;;
29934;SDS011;19905;53.370;-6.314;2023-05-10T11:08:17;0.75;;;0.30;;
29934;SDS011;19905;53.370;-6.314;2023-05-10T11:11:04;1.98;;;0.40;;
29934;SDS011;19905;53.370;-6.314;2023-05-10T11:13:40;2.33;;;0.47;;
29934;SDS011;19905;53.370;-6.314;2023-05-10T11:16:13;2.95;;;0.50;;
29934;SDS011;19905;53.370;-6.314;2023-05-10T11:18:54;2.22;;;0.43;;
29934;SDS011;19905;53.370;-6.314;2023-05-10T11:21:27;1.60;;;0.40;;
29934;SDS011;19905;53.370;-6.314;2023-05-10T11:23:56;2.67;;;0.60;;
29934;SDS011;19905;53.370;-6.314;2023-05-10T11:26:29;2.00;;;0.70;;
29934;SDS011;19905;53.370;-6.314;2023-05-10T11:29:00;3.67;;;0.52;;
29934;SDS011;19905;53.370;-6.314;2023-05-10T11:31:31;3.00;;;0.68;;
29934;SDS011;19905;53.370;-6.314;2023-05-10T11:34:02;1.75;;;0.43;;
29934;SDS011;19905;53.370;-6.314;2023-05-10T11:36:32;2.42;;;0.65;;
29934;SDS011;19905;53.370;-6.314;2023-05-10T11:39:03;3.67;;;0.70;;
29934;SDS011;19905;53.370;-6.314;2023-05-10T11:41:32;2.35;;;0.60;;
29934;SDS011;19905;53.370;-6.314;2023-05-10T11:44:01;3.03;;;0.80;;
29934;SDS011;19905;53.370;-6.314;2023-05-10T11:46:30;1.40;;;0.60;;
29934;SDS011;19905;53.370;-6.314;2023-05-10T11:49:00;2.90;;;0.43;;
29934;SDS011;19905;53.370;-6.314;2023-05-10T11:51:33;4.47;;;0.70;;
29934;SDS011;19905;53.370;-6.314;2023-05-10T11:54:05;2.90;;;0.57;;
29934;SDS011;19905;53.370;-6.314;2023-05-10T11:56:36;3.53;;;0.50;;
29934;SDS011;19905;53.370;-6.314;2023-05-10T11:59:05;2.15;;;0.45;;
29934;SDS011;19905;53.370;-6.314;2023-05-10T12:01:35;1.95;;;0.52;;
29934;SDS011;19905;53.370;-6.314;2023-05-10T12:04:06;3.33;;;0.52;;
29934;SDS011;19905;53.370;-6.314;2023-05-10T12:06:37;3.60;;;0.80;;
29934;SDS011;19905;53.370;-6.314;2023-05-10T12:09:09;2.90;;;0.60;;
29934;SDS011;19905;53.370;-6.314;2023-05-10T12:11:38;5.85;;;0.80;;
29934;SDS011;19905;53.370;-6.314;2023-05-10T12:14:10;2.03;;;0.60;;
29934;SDS011;19905;53.370;-6.314;2023-05-10T12:16:38;1.85;;;0.68;;
29934;SDS011;19905;53.370;-6.314;2023-05-10T12:19:09;2.35;;;0.60;;
29934;SDS011;19905;53.370;-6.314;2023-05-10T12:21:38;2.55;;;0.70;;
29934;SDS011;19905;53.370;-6.314;2023-05-10T12:24:08;2.65;;;0.75;;
29934;SDS011;19905;53.370;-6.314;2023-05-10T12:26:37;1.95;;;0.60;;
29934;SDS011;19905;53.370;-6.314;2023-05-10T12:29:23;4.32;;;0.70;;
29934;SDS011;19905;53.370;-6.314;2023-05-10T12:31:53;4.75;;;0.70;;
29934;SDS011;19905;53.370;-6.314;2023-05-10T12:34:26;3.28;;;0.68;;
29934;SDS011;19905;53.370;-6.314;2023-05-10T12:36:58;2.60;;;0.63;;
29934;SDS011;19905;53.370;-6.314;2023-05-10T12:39:38;4.32;;;0.70;;
29934;SDS011;19905;53.370;-6.314;2023-05-10T12:42:08;1.88;;;0.75;;
29934;SDS011;19905;53.370;-6.314;2023-05-10T12:44:36;3.40;;;0.85;;
29934;SDS011;19905;53.370;-6.314;2023-05-10T12:47:06;1.80;;;0.60;;
29934;SDS011;19905;53.370;-6.314;2023-05-10T12:49:37;1.20;;;0.50;;
29934;SDS011;19905;53.370;-6.314;2023-05-10T12:52:06;1.33;;;0.50;;
29934;SDS011;19905;53.370;-6.314;2023-05-10T12:54:34;1.88;;;0.47;;
29934;SDS011;19905;53.370;-6.314;2023-05-10T12:57:02;2.28;;;0.47;;
29934;SDS011;19905;53.370;-6.314;2023-05-10T12:59:31;4.20;;;0.50;;
29934;SDS011;19905;53.370;-6.314;2023-05-10T13:02:04;2.67;;;0.70;;
29934;SDS011;19905;53.370;-6.314;2023-05-10T13:04:34;2.17;;;0.50;;
29934;SDS011;19905;53.370;-6.314;2023-05-10T13:07:07;2.58;;;0.63;;
29934;SDS011;19905;53.370;-6.314;2023-05-10T13:09:35;4.90;;;0.90;;
29934;SDS011;19905;53.370;-6.314;2023-05-10T13:12:04;2.45;;;0.68;;
29934;SDS011;19905;53.370;-6.314;2023-05-10T13:14:35;1.67;;;0.55;;
29934;SDS011;19905;53.370;-6.314;2023-05-10T13:17:04;2.10;;;0.60;;
29934;SDS011;19905;53.370;-6.314;2023-05-10T13:19:34;1.42;;;0.60;;
29934;SDS011;19905;53.370;-6.314;2023-05-10T13:22:04;2.03;;;0.70;;
29934;SDS011;19905;53.370;-6.314;2023-05-10T13:24:35;1.73;;;0.50;;
29934;SDS011;19905;53.370;-6.314;2023-05-10T13:27:03;3.70;;;0.60;;
29934;SDS011;19905;53.370;-6.314;2023-05-10T13:29:33;1.70;;;0.70;;
29934;SDS011;19905;53.370;-6.314;2023-05-10T13:32:02;0.93;;;0.40;;
29934;SDS011;19905;53.370;-6.314;2023-05-10T13:34:31;1.80;;;0.70;;
29934;SDS011;19905;53.370;-6.314;2023-05-10T13:36:59;1.40;;;0.50;;
29934;SDS011;19905;53.370;-6.314;2023-05-10T13:39:34;2.35;;;0.70;;
29934;SDS011;19905;53.370;-6.314;2023-05-10T13:42:05;3.05;;;0.60;;
29934;SDS011;19905;53.370;-6.314;2023-05-10T13:44:33;3.20;;;0.60;;
29934;SDS011;19905;53.370;-6.314;2023-05-10T13:47:03;1.45;;;0.60;;
29934;SDS011;19905;53.370;-6.314;2023-05-10T13:49:32;3.63;;;0.77;;
29934;SDS011;19905;53.370;-6.314;2023-05-10T13:52:01;1.33;;;0.60;;
29934;SDS011;19905;53.370;-6.314;2023-05-10T13:54:35;2.17;;;0.60;;
29934;SDS011;19905;53.370;-6.314;2023-05-10T13:57:03;1.40;;;0.50;;
29934;SDS011;19905;53.370;-6.314;2023-05-10T13:59:38;1.95;;;0.57;;
29934;SDS011;19905;53.370;-6.314;2023-05-10T14:02:09;0.95;;;0.40;;
29934;SDS011;19905;53.370;-6.314;2023-05-10T14:04:39;5.90;;;0.70;;
29934;SDS011;19905;53.370;-6.314;2023-05-10T14:07:08;1.77;;;0.50;;
29934;SDS011;19905;53.370;-6.314;2023-05-10T14:09:38;2.20;;;0.60;;
29934;SDS011;19905;53.370;-6.314;2023-05-10T14:12:06;4.03;;;0.57;;
29934;SDS011;19905;53.370;-6.314;2023-05-10T14:14:35;4.28;;;1.05;;
29934;SDS011;19905;53.370;-6.314;2023-05-10T14:17:04;4.40;;;0.70;;
29934;SDS011;19905;53.370;-6.314;2023-05-10T14:19:36;3.05;;;1.00;;
29934;SDS011;19905;53.370;-6.314;2023-05-10T14:22:05;5.00;;;1.05;;
29934;SDS011;19905;53.370;-6.314;2023-05-10T14:24:34;3.58;;;0.82;;
29934;SDS011;19905;53.370;-6.314;2023-05-10T14:27:04;4.05;;;0.70;;
29934;SDS011;19905;53.370;-6.314;2023-05-10T14:29:33;2.15;;;0.70;;
29934;SDS011;19905;53.370;-6.314;2023-05-10T14:32:19;2.85;;;0.70;;
29934;SDS011;19905;53.370;-6.314;2023-05-10T14:34:48;3.20;;;0.70;;
29934;SDS011;19905;53.370;-6.314;2023-05-10T14:37:16;4.45;;;0.70;;
29934;SDS011;19905;53.370;-6.314;2023-05-10T14:39:45;3.70;;;0.85;;
29934;SDS011;19905;53.370;-6.314;2023-05-10T14:42:15;4.85;;;0.90;;
29934;SDS011;19905;53.370;-6.314;2023-05-10T14:44:43;2.53;;;0.63;;
29934;SDS011;19905;53.370;-6.314;2023-05-10T14:47:12;5.10;;;0.80;;
29934;SDS011;19905;53.370;-6.314;2023-05-10T14:49:44;3.63;;;0.60;;
29934;SDS011;19905;53.370;-6.314;2023-05-10T14:52:12;3.47;;;0.60;;
29934;SDS011;19905;53.370;-6.314;2023-05-10T14:54:41;2.30;;;0.60;;
29934;SDS011;19905;53.370;-6.314;2023-05-10T14:57:09;3.08;;;0.77;;
29934;SDS011;19905;53.370;-6.314;2023-05-10T14:59:40;4.05;;;0.70;;